Time;durP1;ratioP1;P1;durP2;ratioP2;P2;SDS_P1;SDS_P2;PMS_P1;PMS_P2;Temp;Humidity;BMP_temperature;BMP_pressure;BME280_temperature;BME280_humidity;BME280_pressure;Samples;Min_cycle;Max_cycle;Signal;HPM_P1;HPM_P2
2022/02/10 00:16:05;;;;;;;5.57;5.07;;;6.50;99.90;;;;;;10406443;28;20209;-78
2022/02/10 00:21:11;;;;;;;5.30;4.80;;;6.50;99.90;;;;;;10414409;28;20213;-79
2022/02/10 00:37:10;;;;;;;5.13;4.63;;;6.40;99.90;;;;;;10419761;28;20225;-79
2022/02/10 00:42:12;;;;;;;5.83;5.07;;;6.30;99.90;;;;;;10422548;28;20288;-80
2022/02/10 00:47:15;;;;;;;5.63;5.13;;;6.30;99.90;;;;;;10424455;28;20198;-80
2022/02/10 00:52:18;;;;;;;5.50;5.00;;;6.40;99.90;;;;;;10420653;28;20324;-79
2022/02/10 00:57:22;;;;;;;7.00;4.60;;;6.40;99.90;;;;;;10421783;28;20960;-80
2022/02/10 01:13:27;;;;;;;5.23;4.73;;;6.40;99.90;;;;;;10405645;28;20668;-79
2022/02/10 01:34:42;;;;;;;5.20;4.80;;;6.20;99.90;;;;;;10406658;28;20301;-79
2022/02/10 01:39:49;;;;;;;5.13;4.63;;;6.20;99.90;;;;;;10422733;28;20244;-80
2022/02/10 02:06:21;;;;;;;4.23;3.80;;;6.00;99.90;;;;;;10418968;28;20190;-80
2022/02/10 02:11:25;;;;;;;5.13;4.57;;;6.00;99.90;;;;;;10438735;23;20271;-83
2022/02/10 02:16:27;;;;;;;4.90;4.50;;;5.90;99.90;;;;;;10416739;28;20218;-83
2022/02/10 02:21:34;;;;;;;4.30;4.00;;;5.90;99.90;;;;;;10416403;28;20224;-83
2022/02/10 02:26:38;;;;;;;5.00;4.17;;;5.90;99.90;;;;;;10401618;28;20206;-83
2022/02/10 02:31:44;;;;;;;4.47;3.77;;;5.90;99.90;;;;;;10399525;28;20229;-82
2022/02/10 03:08:54;;;;;;;5.53;4.03;;;6.00;99.90;;;;;;10396106;28;20231;-83
2022/02/10 03:14:01;;;;;;;4.80;4.40;;;6.10;99.90;;;;;;10406215;28;20208;-83
2022/02/10 03:19:17;;;;;;;4.40;4.00;;;6.20;99.90;;;;;;10418284;28;20285;-83
2022/02/10 04:18:02;;;;;;;4.47;4.00;;;6.90;99.90;;;;;;10365043;28;20221;-83
2022/02/10 04:23:15;;;;;;;4.43;4.03;;;6.90;99.90;;;;;;10417474;28;20198;-82
2022/02/10 04:28:31;;;;;;;4.43;3.80;;;6.90;99.90;;;;;;10416068;28;20587;-83
2022/02/10 04:39:44;;;;;;;3.87;3.57;;;6.90;99.90;;;;;;10398910;28;20233;-82
2022/02/10 04:45:30;;;;;;;5.97;4.03;;;6.90;99.90;;;;;;10399573;28;20201;-82
2022/02/10 05:01:00;;;;;;;4.50;3.80;;;7.10;99.90;;;;;;10416355;28;20279;-82
2022/02/10 05:33:19;;;;;;;4.60;3.40;;;7.20;99.90;;;;;;10489293;28;20200;-83
2022/02/10 05:38:28;;;;;;;4.27;3.70;;;7.10;99.90;;;;;;10509679;28;20228;-83
2022/02/10 05:43:42;;;;;;;4.90;3.50;;;7.00;99.90;;;;;;10478952;28;20291;-84
2022/02/10 05:54:18;;;;;;;5.27;4.10;;;7.10;99.90;;;;;;10512219;28;20197;-84
2022/02/10 06:53:16;;;;;;;6.37;3.87;;;7.70;99.90;;;;;;10448715;28;20193;-85
2022/02/10 07:02:34;;;;;;;4.40;4.00;;;7.80;99.90;;;;;;10488232;28;20565;-84
2022/02/10 07:04:20;;;;;;;8.83;4.33;;;7.80;99.90;;;;;;10473277;28;20196;-85
2022/02/10 07:09:42;;;;;;;4.67;3.60;;;7.90;99.90;;;;;;10472912;28;20240;-85
2022/02/10 07:15:11;;;;;;;7.70;5.77;;;8.00;99.90;;;;;;10478666;28;20200;-82
2022/02/10 07:57:46;;;;;;;5.43;3.73;;;8.40;99.90;;;;;;10454289;28;20205;-83
2022/02/10 08:56:34;;;;;;;6.33;5.23;;;8.80;99.90;;;;;;10452626;28;20586;-81
2022/02/10 09:01:54;;;;;;;6.80;5.90;;;8.90;99.90;;;;;;10469638;28;20254;-81
2022/02/10 09:07:23;;;;;;;7.33;5.00;;;9.00;99.90;;;;;;10460810;28;20252;-80
2022/02/10 10:00:28;;;;;;;5.40;4.27;;;10.60;99.90;;;;;;10386275;28;20228;-80
2022/02/10 10:05:39;;;;;;;5.97;4.23;;;10.70;99.90;;;;;;10436956;28;20250;-79
2022/02/10 10:11:21;;;;;;;6.07;5.47;;;10.80;99.90;;;;;;10457644;28;20221;-81
2022/02/10 10:16:41;;;;;;;5.50;5.00;;;10.80;99.90;;;;;;10470266;28;20242;-81
2022/02/10 10:21:50;;;;;;;5.20;4.43;;;10.70;99.90;;;;;;10465402;28;20252;-81
2022/02/10 10:27:11;;;;;;;5.03;4.07;;;10.70;99.90;;;;;;10471694;28;20201;-80
2022/02/10 10:54:16;;;;;;;6.97;4.50;;;10.90;99.90;;;;;;10451523;28;20272;-80
2022/02/10 10:59:38;;;;;;;7.47;5.23;;;11.20;99.90;;;;;;10452507;28;20256;-80
2022/02/10 11:37:27;;;;;;;5.90;4.53;;;11.60;99.60;;;;;;10446804;28;20198;-81
2022/02/10 12:37:24;;;;;;;8.27;5.73;;;12.20;99.90;;;;;;10400841;28;20520;-81
2022/02/10 13:48:17;;;;;;;9.27;8.37;;;11.50;99.90;;;;;;10452111;28;20200;-80
2022/02/10 14:09:33;;;;;;;11.50;8.30;;;11.10;99.90;;;;;;10447047;28;20318;-80
2022/02/10 14:14:43;;;;;;;8.43;7.60;;;11.00;99.90;;;;;;10468488;28;20197;-81
2022/02/10 14:19:57;;;;;;;10.87;7.83;;;10.90;99.90;;;;;;10451861;28;20217;-80
2022/02/10 14:30:20;;;;;;;8.17;7.40;;;10.90;99.90;;;;;;10450614;28;20214;-80
2022/02/10 14:35:28;;;;;;;8.50;7.67;;;10.90;99.90;;;;;;10453061;28;20208;-80
2022/02/10 14:40:56;;;;;;;10.43;8.47;;;10.90;99.90;;;;;;10433033;28;20252;-80
2022/02/10 16:12:40;;;;;;;11.30;8.20;;;10.20;99.90;;;;;;10464320;28;20231;-79
2022/02/10 16:17:23;;;;;;;10.13;9.17;;;10.20;99.90;;;;;;10462237;28;20193;-78
2022/02/10 16:22:36;;;;;;;10.07;8.70;;;10.20;99.90;;;;;;10443945;28;20217;-78
2022/02/10 16:27:48;;;;;;;12.07;10.10;;;10.10;99.90;;;;;;10442445;28;20272;-79
2022/02/10 16:32:50;;;;;;;9.60;8.60;;;10.20;99.90;;;;;;10464662;28;20197;-78
2022/02/10 16:37:54;;;;;;;8.43;7.20;;;10.10;99.90;;;;;;10462458;28;20207;-80
2022/02/10 16:42:56;;;;;;;8.60;6.37;;;10.00;99.90;;;;;;10462747;28;20221;-79
2022/02/10 16:47:58;;;;;;;5.50;5.00;;;10.00;99.90;;;;;;10458080;28;20617;-80
2022/02/10 16:53:06;;;;;;;6.73;4.93;;;9.90;99.90;;;;;;10466937;28;20252;-80
2022/02/10 16:58:19;;;;;;;5.43;4.93;;;9.90;99.90;;;;;;10448491;28;20217;-80
2022/02/10 17:03:35;;;;;;;7.00;4.53;;;9.90;99.90;;;;;;10465078;28;20274;-80
2022/02/10 17:14:15;;;;;;;4.33;3.93;;;9.90;99.90;;;;;;10443436;28;20207;-79
2022/02/10 17:19:28;;;;;;;4.57;4.17;;;9.90;99.90;;;;;;10465332;28;20231;-80
2022/02/10 17:30:25;;;;;;;6.37;4.50;;;10.00;99.90;;;;;;10428307;28;20220;-81
2022/02/10 17:35:46;;;;;;;4.37;4.00;;;10.00;99.90;;;;;;10427027;28;20189;-79
2022/02/10 17:46:12;;;;;;;6.27;3.93;;;9.90;99.90;;;;;;10443898;28;20208;-79
2022/02/10 17:51:32;;;;;;;4.33;3.97;;;9.90;99.90;;;;;;10444168;28;20576;-79
2022/02/10 17:56:36;;;;;;;4.40;4.00;;;9.90;99.90;;;;;;10437195;28;20194;-79
2022/02/10 18:01:38;;;;;;;4.90;4.50;;;9.90;99.90;;;;;;10446374;28;20607;-80
2022/02/10 18:06:45;;;;;;;6.47;5.60;;;9.80;99.90;;;;;;10426389;28;20251;-78
2022/02/10 18:17:24;;;;;;;4.87;3.83;;;9.80;99.90;;;;;;10411653;28;20201;-80
2022/02/10 18:22:47;;;;;;;6.20;4.73;;;9.90;99.90;;;;;;10443761;28;20218;-79
2022/02/10 18:28:05;;;;;;;5.30;4.80;;;9.80;99.90;;;;;;10426575;28;20577;-80
2022/02/10 19:10:48;;;;;;;5.73;4.80;;;9.70;99.90;;;;;;10384679;28;20588;-79
2022/02/10 19:15:54;;;;;;;4.90;4.47;;;9.70;99.90;;;;;;10462363;28;20201;-79
2022/02/10 19:20:56;;;;;;;6.20;5.07;;;9.70;99.90;;;;;;10461491;28;20248;-79
2022/02/10 19:25:58;;;;;;;5.27;4.77;;;9.60;99.90;;;;;;10449884;28;20211;-79
2022/02/10 19:31:04;;;;;;;5.77;5.20;;;9.60;99.90;;;;;;10448424;28;20209;-79
2022/02/10 19:36:07;;;;;;;5.17;4.70;;;9.60;99.90;;;;;;10432993;28;20295;-79
2022/02/10 19:41:12;;;;;;;5.20;4.60;;;9.60;99.90;;;;;;10463672;28;20217;-79
2022/02/10 19:46:15;;;;;;;4.87;4.47;;;9.50;99.90;;;;;;10442614;28;20229;-80
2022/02/10 19:51:17;;;;;;;5.70;4.70;;;9.50;99.90;;;;;;10467890;28;20247;-78
2022/02/10 19:56:20;;;;;;;5.77;4.90;;;9.50;99.90;;;;;;10430939;28;20197;-77
2022/02/10 20:01:26;;;;;;;5.90;5.40;;;9.30;99.90;;;;;;10428505;28;20236;-78
2022/02/10 20:06:29;;;;;;;5.43;4.93;;;9.30;99.90;;;;;;10460665;28;20246;-77
2022/02/10 20:11:31;;;;;;;7.80;7.10;;;9.30;99.90;;;;;;10491971;22;20653;-84
2022/02/10 20:16:34;;;;;;;5.90;5.27;;;9.30;99.90;;;;;;10476971;28;20200;-84
2022/02/10 20:21:37;;;;;;;5.43;4.93;;;9.20;99.90;;;;;;10443486;28;20289;-83
2022/02/10 20:26:39;;;;;;;7.20;5.33;;;9.00;99.90;;;;;;10437016;28;20225;-81
2022/02/10 20:31:43;;;;;;;4.57;4.27;;;8.80;99.90;;;;;;10425678;28;20217;-86
2022/02/10 20:36:45;;;;;;;4.30;4.00;;;8.80;99.90;;;;;;10438302;28;20197;-82
2022/02/10 20:41:51;;;;;;;5.80;5.20;;;8.60;99.90;;;;;;10447966;28;20693;-82
2022/02/10 20:46:54;;;;;;;5.20;4.50;;;8.60;99.90;;;;;;10437822;28;20201;-83
2022/02/10 20:51:57;;;;;;;4.80;4.47;;;8.60;99.90;;;;;;10415512;28;20263;-82
2022/02/10 20:57:00;;;;;;;5.70;4.70;;;8.70;99.90;;;;;;10424236;28;20211;-83
2022/02/10 21:02:08;;;;;;;6.07;5.47;;;8.60;99.90;;;;;;10442084;28;20221;-83
2022/02/10 21:07:15;;;;;;;6.17;5.60;;;8.60;99.90;;;;;;10441450;28;20281;-82
2022/02/10 21:12:17;;;;;;;5.30;4.80;;;8.60;99.90;;;;;;10440336;28;20221;-84
2022/02/10 21:17:24;;;;;;;5.80;5.23;;;8.60;99.90;;;;;;10449855;28;20224;-84
2022/02/10 21:22:27;;;;;;;5.90;5.40;;;8.60;99.90;;;;;;10424765;28;20221;-84
2022/02/10 21:27:32;;;;;;;6.37;4.50;;;8.70;99.90;;;;;;10431953;28;20205;-82
2022/02/10 21:32:42;;;;;;;5.23;4.73;;;8.70;99.90;;;;;;10429952;28;20240;-84
2022/02/10 21:37:49;;;;;;;5.57;5.00;;;8.60;99.90;;;;;;10447485;28;20232;-83
2022/02/10 21:48:35;;;;;;;4.63;4.23;;;8.70;99.90;;;;;;10459146;28;20201;-82
2022/02/10 21:59:28;;;;;;;4.87;4.27;;;8.80;99.90;;;;;;10422544;28;20213;-84
2022/02/10 22:09:59;;;;;;;6.10;5.50;;;8.90;99.90;;;;;;10430027;28;20598;-84
2022/02/10 22:20:32;;;;;;;6.30;5.70;;;8.90;99.90;;;;;;10434717;28;20769;-83
2022/02/10 22:25:35;;;;;;;7.33;6.63;;;8.90;99.90;;;;;;10436431;28;20200;-83
2022/02/10 22:30:47;;;;;;;6.30;5.80;;;9.00;99.90;;;;;;10455657;28;20628;-83
2022/02/10 22:35:51;;;;;;;8.00;5.43;;;9.00;99.90;;;;;;10438738;28;20197;-83
2022/02/10 22:41:02;;;;;;;6.80;6.27;;;9.00;99.90;;;;;;10423677;28;20221;-82
2022/02/10 22:46:05;;;;;;;6.30;5.80;;;9.00;99.90;;;;;;10425650;28;20556;-81
2022/02/10 22:51:09;;;;;;;6.80;6.17;;;9.00;99.90;;;;;;10432268;28;20215;-84
2022/02/10 22:56:15;;;;;;;6.43;5.80;;;9.00;99.90;;;;;;10451976;28;20197;-83
2022/02/10 23:01:17;;;;;;;7.07;6.37;;;9.10;99.90;;;;;;10453078;28;20255;-84
2022/02/10 23:06:21;;;;;;;6.47;5.87;;;9.10;99.90;;;;;;10450644;28;20265;-83
2022/02/10 23:11:28;;;;;;;6.03;5.43;;;9.10;99.90;;;;;;10440583;28;20229;-83
2022/02/10 23:16:30;;;;;;;6.93;6.23;;;9.10;99.90;;;;;;10428193;28;20247;-84
2022/02/10 23:21:33;;;;;;;5.47;4.90;;;9.10;99.90;;;;;;10431499;28;20249;-82
2022/02/10 23:26:35;;;;;;;5.13;4.73;;;9.10;99.90;;;;;;10417449;28;20228;-82
2022/02/10 23:31:37;;;;;;;5.33;4.83;;;9.10;99.90;;;;;;10434317;28;20273;-82
2022/02/10 23:36:48;;;;;;;7.93;5.17;;;9.10;99.90;;;;;;10403176;28;20243;-82
2022/02/10 23:42:04;;;;;;;5.70;5.10;;;9.10;99.90;;;;;;10439027;28;20300;-83
2022/02/10 23:47:09;;;;;;;6.20;5.37;;;9.10;99.90;;;;;;10433696;28;20211;-82
2022/02/10 23:52:15;;;;;;;4.87;4.13;;;9.10;99.90;;;;;;10395271;28;20214;-83
2022/02/10 23:57:26;;;;;;;4.23;3.93;;;9.10;99.90;;;;;;10414945;28;20263;-82
